Time;durP1;ratioP1;P1;durP2;ratioP2;P2;SDS_P1;SDS_P2;PMS_P1;PMS_P2;Temp;Humidity;BMP_temperature;BMP_pressure;BME280_temperature;BME280_humidity;BME280_pressure;Samples;Min_cycle;Max_cycle;Signal;HPM_P1;HPM_P2
2023/08/14 00:00:07;;;;;;;10.10;4.20;;;;;;;;;;5111953;28;20591;-77
2023/08/14 00:02:33;;;;;;;10.40;3.88;;;;;;;;;;5111891;28;20490;-77
2023/08/14 00:04:58;;;;;;;11.27;4.00;;;;;;;;;;5112129;28;20043;-77
2023/08/14 00:07:23;;;;;;;15.10;4.22;;;;;;;;;;5111973;28;20114;-76
2023/08/14 00:09:48;;;;;;;11.65;3.40;;;;;;;;;;5111802;28;20106;-76
2023/08/14 00:12:14;;;;;;;9.32;3.50;;;;;;;;;;5111476;28;20468;-77
2023/08/14 00:14:39;;;;;;;11.18;3.78;;;;;;;;;;5111519;28;20023;-77
2023/08/14 00:17:04;;;;;;;11.00;3.33;;;;;;;;;;5111584;28;20032;-77
2023/08/14 00:19:30;;;;;;;8.27;3.50;;;;;;;;;;5112205;28;20023;-77
2023/08/14 00:21:55;;;;;;;10.13;3.70;;;;;;;;;;5111584;28;20465;-77
2023/08/14 00:24:20;;;;;;;12.27;3.78;;;;;;;;;;5111580;28;21038;-76
2023/08/14 00:26:46;;;;;;;9.48;3.40;;;;;;;;;;5111572;28;20020;-77
2023/08/14 00:29:11;;;;;;;8.73;3.58;;;;;;;;;;5111362;28;20023;-76
2023/08/14 00:31:36;;;;;;;8.77;3.90;;;;;;;;;;5111079;28;20536;-77
2023/08/14 00:34:02;;;;;;;9.15;3.50;;;;;;;;;;5111471;28;20034;-77
2023/08/14 00:36:27;;;;;;;9.13;3.70;;;;;;;;;;5110518;28;20039;-77
2023/08/14 00:38:52;;;;;;;10.00;3.58;;;;;;;;;;5110829;28;20066;-77
2023/08/14 00:41:18;;;;;;;10.15;3.90;;;;;;;;;;5111453;28;20119;-77
2023/08/14 00:43:43;;;;;;;8.15;3.80;;;;;;;;;;5110833;28;20102;-77
2023/08/14 00:46:09;;;;;;;7.15;4.00;;;;;;;;;;5111285;28;20030;-77
2023/08/14 00:48:35;;;;;;;10.45;3.90;;;;;;;;;;5111429;28;20032;-77
2023/08/14 00:51:01;;;;;;;8.38;4.00;;;;;;;;;;5111120;28;20020;-77
2023/08/14 00:53:28;;;;;;;8.52;3.95;;;;;;;;;;5110994;28;20020;-77
2023/08/14 00:55:54;;;;;;;11.02;3.60;;;;;;;;;;5110692;28;20088;-77
2023/08/14 00:58:21;;;;;;;10.23;3.63;;;;;;;;;;5110896;28;20032;-77
2023/08/14 01:00:47;;;;;;;11.68;3.88;;;;;;;;;;5111035;28;20031;-77
2023/08/14 01:03:13;;;;;;;9.43;3.90;;;;;;;;;;5092511;28;20110;-77
2023/08/14 01:05:39;;;;;;;10.27;3.72;;;;;;;;;;5110961;28;20030;-77
2023/08/14 01:08:04;;;;;;;9.55;3.50;;;;;;;;;;5110645;28;20034;-77
2023/08/14 01:10:49;;;;;;;10.13;4.03;;;;;;;;;;5110839;28;20403;-77
2023/08/14 01:13:52;;;;;;;11.33;4.20;;;;;;;;;;5109962;28;20031;-77
2023/08/14 01:16:23;;;;;;;9.93;3.90;;;;;;;;;;5110054;28;20268;-77
2023/08/14 01:18:51;;;;;;;10.13;4.15;;;;;;;;;;5092502;28;20020;-77
2023/08/14 01:21:16;;;;;;;10.85;4.03;;;;;;;;;;5092183;28;20023;-77
2023/08/14 01:23:44;;;;;;;11.57;3.90;;;;;;;;;;5110756;28;20035;-77
2023/08/14 01:26:10;;;;;;;10.75;4.03;;;;;;;;;;5110464;28;20031;-77
2023/08/14 01:28:36;;;;;;;10.13;4.13;;;;;;;;;;5110281;28;20032;-77
2023/08/14 01:31:01;;;;;;;12.55;4.30;;;;;;;;;;5110220;28;20026;-77
2023/08/14 01:33:26;;;;;;;9.32;4.10;;;;;;;;;;5110427;28;20023;-77
2023/08/14 01:36:02;;;;;;;11.00;4.43;;;;;;;;;;5110053;28;20043;-77
2023/08/14 01:38:34;;;;;;;10.50;4.00;;;;;;;;;;5110486;28;20031;-77
2023/08/14 01:41:07;;;;;;;10.70;4.30;;;;;;;;;;5091740;28;20092;-77
2023/08/14 01:43:48;;;;;;;8.93;4.10;;;;;;;;;;5109954;28;20032;-77
2023/08/14 01:46:15;;;;;;;7.82;3.60;;;;;;;;;;5110508;28;20487;-77
2023/08/14 01:48:41;;;;;;;9.48;4.03;;;;;;;;;;5091816;28;20027;-77
2023/08/14 01:51:09;;;;;;;8.40;3.63;;;;;;;;;;5110157;28;20031;-77
2023/08/14 01:53:36;;;;;;;6.78;3.60;;;;;;;;;;5109722;28;20054;-77
2023/08/14 01:56:01;;;;;;;13.88;4.07;;;;;;;;;;5110064;28;20024;-77
2023/08/14 01:58:27;;;;;;;10.15;3.72;;;;;;;;;;5109774;28;20049;-77
2023/08/14 02:00:52;;;;;;;11.70;4.00;;;;;;;;;;5092051;28;20108;-77
2023/08/14 02:03:18;;;;;;;12.23;3.85;;;;;;;;;;5110041;28;20058;-76
2023/08/14 02:05:43;;;;;;;9.80;3.83;;;;;;;;;;5110231;28;20110;-77
2023/08/14 02:08:08;;;;;;;10.13;3.75;;;;;;;;;;5109943;28;20020;-77
2023/08/14 02:10:34;;;;;;;13.35;4.22;;;;;;;;;;5110163;28;20032;-77
2023/08/14 02:12:59;;;;;;;9.23;3.70;;;;;;;;;;5109645;28;20102;-76
2023/08/14 02:15:24;;;;;;;10.20;3.80;;;;;;;;;;5108779;28;20330;-77
2023/08/14 02:17:50;;;;;;;14.25;3.70;;;;;;;;;;5113244;28;20024;-77
2023/08/14 02:20:15;;;;;;;8.55;3.50;;;;;;;;;;5110053;28;20072;-77
2023/08/14 02:22:41;;;;;;;10.98;3.45;;;;;;;;;;5109331;28;20054;-76
2023/08/14 02:25:06;;;;;;;7.55;3.15;;;;;;;;;;5110136;28;20383;-77
2023/08/14 02:27:32;;;;;;;8.70;3.40;;;;;;;;;;5109624;28;20019;-77
2023/08/14 02:29:57;;;;;;;8.75;3.33;;;;;;;;;;5109332;28;20357;-77
2023/08/14 02:32:23;;;;;;;11.20;3.55;;;;;;;;;;5109510;28;20089;-77
2023/08/14 02:34:50;;;;;;;14.15;3.50;;;;;;;;;;5109868;28;20020;-76
2023/08/14 02:37:17;;;;;;;8.60;3.38;;;;;;;;;;5109538;28;20050;-77
2023/08/14 02:39:43;;;;;;;11.23;3.75;;;;;;;;;;5109778;28;20648;-77
2023/08/14 02:42:09;;;;;;;11.30;3.63;;;;;;;;;;5109443;28;20031;-77
2023/08/14 02:44:35;;;;;;;12.02;3.05;;;;;;;;;;5109755;28;20024;-77
2023/08/14 02:47:01;;;;;;;10.07;3.38;;;;;;;;;;5109551;28;20028;-77
2023/08/14 02:49:26;;;;;;;8.30;3.38;;;;;;;;;;5109595;28;20016;-77
2023/08/14 02:51:52;;;;;;;8.07;3.58;;;;;;;;;;5109089;28;20049;-77
2023/08/14 02:54:17;;;;;;;8.98;3.53;;;;;;;;;;5109736;28;20035;-77
2023/08/14 02:56:43;;;;;;;7.85;3.17;;;;;;;;;;5091097;28;20031;-77
2023/08/14 02:59:08;;;;;;;9.73;3.00;;;;;;;;;;5109555;28;20028;-77
2023/08/14 03:01:33;;;;;;;7.45;3.10;;;;;;;;;;5111850;28;20104;-76
2023/08/14 03:03:59;;;;;;;8.32;3.28;;;;;;;;;;5113487;28;20125;-77
2023/08/14 03:06:24;;;;;;;10.82;3.35;;;;;;;;;;5112836;28;20377;-77
2023/08/14 03:08:50;;;;;;;9.05;3.42;;;;;;;;;;5113075;28;20028;-77
2023/08/14 03:11:16;;;;;;;10.52;3.38;;;;;;;;;;5112657;28;20115;-76
2023/08/14 03:13:41;;;;;;;8.80;2.80;;;;;;;;;;5112506;28;20020;-76
2023/08/14 03:16:07;;;;;;;9.68;2.85;;;;;;;;;;5112611;28;20035;-76
2023/08/14 03:18:32;;;;;;;8.98;3.13;;;;;;;;;;5112999;28;20059;-77
2023/08/14 03:20:58;;;;;;;11.88;3.03;;;;;;;;;;5112617;28;20032;-76
2023/08/14 03:23:23;;;;;;;11.75;2.92;;;;;;;;;;5113003;28;20614;-76
2023/08/14 03:25:48;;;;;;;9.05;2.67;;;;;;;;;;5112765;28;20065;-77
2023/08/14 03:28:14;;;;;;;10.15;2.80;;;;;;;;;;5112117;28;20035;-77
2023/08/14 03:30:43;;;;;;;9.27;2.90;;;;;;;;;;5112605;28;20020;-77
2023/08/14 03:33:09;;;;;;;8.52;3.13;;;;;;;;;;5099421;28;20024;-77
2023/08/14 03:35:34;;;;;;;5.40;2.63;;;;;;;;;;5111923;28;20394;-77
2023/08/14 03:38:00;;;;;;;11.80;3.03;;;;;;;;;;5112637;28;20027;-77
2023/08/14 03:40:25;;;;;;;11.57;2.90;;;;;;;;;;5112561;28;20610;-77
2023/08/14 03:42:50;;;;;;;10.80;3.20;;;;;;;;;;5112665;28;20016;-77
2023/08/14 03:45:16;;;;;;;10.05;2.97;;;;;;;;;;5111812;28;20028;-77
2023/08/14 03:47:41;;;;;;;10.48;2.90;;;;;;;;;;5111186;28;20059;-77
2023/08/14 03:50:07;;;;;;;8.77;2.67;;;;;;;;;;5111932;28;20072;-77
2023/08/14 03:52:32;;;;;;;9.68;2.72;;;;;;;;;;5112373;28;20024;-76
2023/08/14 03:54:58;;;;;;;8.75;2.72;;;;;;;;;;5112013;28;20103;-77
2023/08/14 03:57:23;;;;;;;10.95;3.10;;;;;;;;;;5093822;28;20678;-77
2023/08/14 03:59:48;;;;;;;10.70;3.20;;;;;;;;;;5111855;28;20391;-76
2023/08/14 04:02:13;;;;;;;7.65;2.88;;;;;;;;;;5112108;28;20023;-77
2023/08/14 04:04:39;;;;;;;8.13;3.15;;;;;;;;;;5112175;28;20541;-76
2023/08/14 04:07:04;;;;;;;7.32;2.97;;;;;;;;;;5111635;28;20047;-77
2023/08/14 04:09:30;;;;;;;10.07;3.30;;;;;;;;;;5111844;28;20096;-77
2023/08/14 04:11:55;;;;;;;9.35;3.30;;;;;;;;;;5111630;28;20024;-77
2023/08/14 04:14:21;;;;;;;9.45;3.08;;;;;;;;;;5111404;28;20019;-77
2023/08/14 04:16:46;;;;;;;10.32;3.60;;;;;;;;;;5111594;28;20024;-77
2023/08/14 04:19:14;;;;;;;10.65;3.10;;;;;;;;;;5111866;28;20023;-77
2023/08/14 04:21:40;;;;;;;8.48;3.00;;;;;;;;;;5111717;28;20019;-77
2023/08/14 04:24:06;;;;;;;8.52;3.13;;;;;;;;;;5111342;28;20027;-77
2023/08/14 04:26:32;;;;;;;9.48;3.17;;;;;;;;;;5111679;28;20037;-77
2023/08/14 04:28:57;;;;;;;8.07;2.75;;;;;;;;;;5111104;28;20106;-77
2023/08/14 04:31:23;;;;;;;7.78;2.85;;;;;;;;;;5111217;28;20050;-77
2023/08/14 04:33:48;;;;;;;11.02;3.30;;;;;;;;;;5111423;28;20027;-77
2023/08/14 04:36:13;;;;;;;7.93;3.20;;;;;;;;;;5111100;28;20434;-78
2023/08/14 04:38:39;;;;;;;10.75;3.03;;;;;;;;;;5111258;28;20609;-78
2023/08/14 04:41:04;;;;;;;7.15;2.80;;;;;;;;;;5111075;28;20375;-77
2023/08/14 04:43:31;;;;;;;8.63;3.10;;;;;;;;;;5111153;28;20039;-77
2023/08/14 04:45:57;;;;;;;9.25;3.13;;;;;;;;;;5092985;28;20106;-77
2023/08/14 04:48:22;;;;;;;11.65;3.17;;;;;;;;;;5110839;28;20705;-77
2023/08/14 04:50:48;;;;;;;9.25;2.90;;;;;;;;;;5092528;28;20020;-77
2023/08/14 04:53:13;;;;;;;9.13;3.15;;;;;;;;;;5110973;28;20023;-77
2023/08/14 04:55:39;;;;;;;7.65;3.13;;;;;;;;;;5110750;28;20027;-77
2023/08/14 04:58:04;;;;;;;7.22;2.90;;;;;;;;;;5092769;28;20074;-77
2023/08/14 05:00:29;;;;;;;7.78;3.10;;;;;;;;;;5110570;28;20040;-77
2023/08/14 05:02:55;;;;;;;6.90;2.80;;;;;;;;;;5111207;28;20050;-77
2023/08/14 05:05:20;;;;;;;10.98;3.15;;;;;;;;;;5110493;28;20016;-77
2023/08/14 05:07:46;;;;;;;8.30;3.13;;;;;;;;;;5110741;28;20035;-77
2023/08/14 05:10:11;;;;;;;8.75;3.17;;;;;;;;;;5110820;28;20023;-77
2023/08/14 05:12:36;;;;;;;7.93;2.80;;;;;;;;;;5110369;28;20045;-77
2023/08/14 05:15:02;;;;;;;10.23;2.78;;;;;;;;;;5110129;28;20027;-77
2023/08/14 05:17:28;;;;;;;8.80;3.13;;;;;;;;;;5110623;28;20067;-76
2023/08/14 05:19:53;;;;;;;9.27;2.75;;;;;;;;;;5110420;28;20031;-77
2023/08/14 05:22:19;;;;;;;12.48;3.10;;;;;;;;;;5110553;28;20015;-77
2023/08/14 05:24:46;;;;;;;15.90;3.63;;;;;;;;;;5110266;28;20053;-77
2023/08/14 05:27:11;;;;;;;10.38;3.03;;;;;;;;;;5110250;28;20043;-76
2023/08/14 05:29:36;;;;;;;10.45;2.88;;;;;;;;;;5110323;28;20015;-76
2023/08/14 05:32:02;;;;;;;10.38;2.92;;;;;;;;;;5109668;28;20024;-76
2023/08/14 05:34:27;;;;;;;8.18;3.08;;;;;;;;;;5110616;28;20028;-76
2023/08/14 05:36:52;;;;;;;10.70;3.03;;;;;;;;;;5109857;28;20035;-76
2023/08/14 05:39:21;;;;;;;10.85;3.17;;;;;;;;;;5110335;28;20034;-76
2023/08/14 05:41:46;;;;;;;12.88;3.10;;;;;;;;;;5096664;28;20464;-76
2023/08/14 05:44:11;;;;;;;8.98;3.13;;;;;;;;;;5110178;28;20034;-77
2023/08/14 05:46:37;;;;;;;9.50;3.00;;;;;;;;;;5109376;28;20032;-76
2023/08/14 05:49:03;;;;;;;8.98;2.95;;;;;;;;;;5110096;28;20011;-76
2023/08/14 05:51:28;;;;;;;7.00;3.53;;;;;;;;;;5109984;28;20387;-76
2023/08/14 05:53:54;;;;;;;23.52;5.00;;;;;;;;;;5109970;28;20070;-76
2023/08/14 05:56:19;;;;;;;19.58;4.53;;;;;;;;;;5091249;28;20533;-77
2023/08/14 05:58:44;;;;;;;18.00;4.32;;;;;;;;;;5110215;28;20039;-75
2023/08/14 06:01:09;;;;;;;21.30;4.85;;;;;;;;;;5109598;28;20031;-77
2023/08/14 06:03:35;;;;;;;46.10;4.90;;;;;;;;;;5110165;28;20027;-77
2023/08/14 06:06:00;;;;;;;15.32;4.60;;;;;;;;;;5108956;28;20024;-76
2023/08/14 06:08:26;;;;;;;23.40;5.00;;;;;;;;;;5091739;28;20028;-77
2023/08/14 06:10:51;;;;;;;13.70;4.25;;;;;;;;;;5109839;28;20024;-77
2023/08/14 06:13:16;;;;;;;21.70;4.47;;;;;;;;;;5109800;28;20019;-76
2023/08/14 06:15:42;;;;;;;16.60;4.13;;;;;;;;;;5109559;28;20026;-77
2023/08/14 06:18:07;;;;;;;14.93;3.75;;;;;;;;;;5109363;28;20034;-77
2023/08/14 06:20:32;;;;;;;14.43;3.67;;;;;;;;;;5109838;28;20024;-77
2023/08/14 06:22:58;;;;;;;12.07;3.53;;;;;;;;;;5109772;28;20022;-76
2023/08/14 06:25:25;;;;;;;12.07;3.30;;;;;;;;;;5109579;28;20062;-76
2023/08/14 06:27:50;;;;;;;12.57;3.20;;;;;;;;;;5109525;28;20026;-77
2023/08/14 06:30:16;;;;;;;11.75;3.08;;;;;;;;;;5109376;28;20415;-77
2023/08/14 06:32:41;;;;;;;7.10;2.90;;;;;;;;;;5109467;28;20744;-76
2023/08/14 06:35:07;;;;;;;9.88;2.83;;;;;;;;;;5110231;28;20509;-76
2023/08/14 06:37:33;;;;;;;13.10;3.00;;;;;;;;;;5113481;28;20120;-77
2023/08/14 06:39:58;;;;;;;8.98;3.10;;;;;;;;;;5113892;28;20480;-76
2023/08/14 06:42:24;;;;;;;12.18;3.22;;;;;;;;;;5113079;28;20031;-76
2023/08/14 06:44:49;;;;;;;11.45;3.40;;;;;;;;;;5094486;28;20019;-77
2023/08/14 06:47:15;;;;;;;8.38;2.90;;;;;;;;;;5113396;28;20059;-76
2023/08/14 06:49:40;;;;;;;7.38;2.70;;;;;;;;;;5113452;28;20019;-76
2023/08/14 06:52:06;;;;;;;9.35;2.60;;;;;;;;;;5113576;28;20468;-76
2023/08/14 06:54:31;;;;;;;9.77;2.58;;;;;;;;;;5113310;28;20022;-77
2023/08/14 06:56:56;;;;;;;5.90;2.70;;;;;;;;;;5113240;28;20097;-76
2023/08/14 06:59:22;;;;;;;10.95;3.30;;;;;;;;;;5113195;28;20028;-75
2023/08/14 07:01:47;;;;;;;7.93;2.85;;;;;;;;;;5112591;28;20432;-76
2023/08/14 07:04:12;;;;;;;9.70;2.80;;;;;;;;;;5112635;28;20028;-77
2023/08/14 07:06:38;;;;;;;12.30;2.72;;;;;;;;;;5113162;28;20432;-76
2023/08/14 07:09:04;;;;;;;8.50;2.53;;;;;;;;;;5112944;28;20039;-77
2023/08/14 07:11:36;;;;;;;9.85;2.70;;;;;;;;;;5113012;28;20031;-77
2023/08/14 07:14:02;;;;;;;11.45;2.63;;;;;;;;;;5094353;28;20012;-78
2023/08/14 07:16:27;;;;;;;9.02;2.60;;;;;;;;;;5112516;28;20032;-76
2023/08/14 07:18:52;;;;;;;8.68;2.60;;;;;;;;;;5112657;28;20020;-79
2023/08/14 07:21:18;;;;;;;7.43;2.60;;;;;;;;;;5112687;28;20058;-78
2023/08/14 07:23:43;;;;;;;9.63;2.78;;;;;;;;;;5112566;28;20042;-77
2023/08/14 07:26:11;;;;;;;9.75;2.90;;;;;;;;;;5112752;28;20031;-78
2023/08/14 07:28:40;;;;;;;10.13;2.63;;;;;;;;;;5112558;28;20604;-77
2023/08/14 07:31:07;;;;;;;8.52;2.80;;;;;;;;;;5111870;28;20026;-77
2023/08/14 07:33:32;;;;;;;8.32;2.75;;;;;;;;;;5112173;28;20028;-78
2023/08/14 07:35:59;;;;;;;8.23;2.50;;;;;;;;;;5112132;28;20043;-78
2023/08/14 07:38:25;;;;;;;7.93;2.80;;;;;;;;;;5111984;28;20031;-77
2023/08/14 07:40:51;;;;;;;8.18;2.70;;;;;;;;;;5112056;28;20533;-78
2023/08/14 07:43:17;;;;;;;9.90;2.90;;;;;;;;;;5112124;28;20463;-78
2023/08/14 07:45:43;;;;;;;9.30;2.83;;;;;;;;;;5111629;28;20049;-77
2023/08/14 07:48:09;;;;;;;13.68;2.58;;;;;;;;;;5093340;28;20023;-78
2023/08/14 07:50:37;;;;;;;8.98;2.70;;;;;;;;;;5111954;28;20031;-78
2023/08/14 07:53:03;;;;;;;8.80;2.60;;;;;;;;;;5111825;28;20368;-78
2023/08/14 07:55:28;;;;;;;7.75;2.70;;;;;;;;;;5111907;28;20031;-78
2023/08/14 07:57:54;;;;;;;9.25;2.78;;;;;;;;;;5111943;28;20043;-78
2023/08/14 08:00:19;;;;;;;9.25;2.80;;;;;;;;;;5111737;28;20031;-77
2023/08/14 08:02:45;;;;;;;9.60;2.80;;;;;;;;;;5111809;28;20030;-77
2023/08/14 08:05:10;;;;;;;8.80;2.70;;;;;;;;;;5111553;28;20706;-76
2023/08/14 08:07:36;;;;;;;8.80;2.63;;;;;;;;;;5111613;28;20483;-76
2023/08/14 08:10:04;;;;;;;6.95;2.50;;;;;;;;;;5111320;28;20368;-77
2023/08/14 08:12:29;;;;;;;8.38;2.75;;;;;;;;;;5110733;28;20023;-76
2023/08/14 08:14:55;;;;;;;11.18;2.65;;;;;;;;;;5111264;28;20213;-76
2023/08/14 08:17:20;;;;;;;7.32;2.70;;;;;;;;;;5111334;28;20547;-77
2023/08/14 08:19:46;;;;;;;8.27;2.80;;;;;;;;;;5110278;28;20388;-77
2023/08/14 08:22:12;;;;;;;9.90;2.70;;;;;;;;;;5111573;28;20019;-77
2023/08/14 08:24:38;;;;;;;9.30;2.78;;;;;;;;;;5111679;28;20015;-76
2023/08/14 08:27:03;;;;;;;6.65;2.70;;;;;;;;;;5111066;28;20493;-77
2023/08/14 08:29:28;;;;;;;8.73;2.58;;;;;;;;;;5111237;28;20018;-76
2023/08/14 08:31:55;;;;;;;8.70;2.60;;;;;;;;;;5110058;28;20151;-76
2023/08/14 08:34:20;;;;;;;8.35;2.47;;;;;;;;;;5111158;28;20042;-76
2023/08/14 08:36:45;;;;;;;10.60;2.58;;;;;;;;;;5110926;28;20047;-76
2023/08/14 08:39:11;;;;;;;8.70;2.78;;;;;;;;;;5111314;28;20028;-75
2023/08/14 08:41:39;;;;;;;12.73;2.67;;;;;;;;;;5111159;28;20023;-76
2023/08/14 08:44:15;;;;;;;11.05;2.67;;;;;;;;;;5108010;28;20038;-75
2023/08/14 08:46:51;;;;;;;8.32;2.70;;;;;;;;;;5101532;28;20023;-76
2023/08/14 08:49:16;;;;;;;7.43;2.45;;;;;;;;;;5083369;28;20437;-75
2023/08/14 08:51:43;;;;;;;7.93;2.38;;;;;;;;;;5101816;28;20671;-76
2023/08/14 08:54:09;;;;;;;8.40;2.80;;;;;;;;;;5108742;28;20027;-76
2023/08/14 08:56:35;;;;;;;8.10;2.63;;;;;;;;;;5111026;28;20026;-75
2023/08/14 08:59:03;;;;;;;9.15;2.55;;;;;;;;;;5110499;28;20035;-76
2023/08/14 09:01:29;;;;;;;6.65;2.40;;;;;;;;;;5109881;28;20030;-76
2023/08/14 09:03:55;;;;;;;9.35;2.72;;;;;;;;;;5110808;28;20476;-76
2023/08/14 09:06:20;;;;;;;11.98;2.60;;;;;;;;;;5110153;28;20035;-75
2023/08/14 09:08:46;;;;;;;7.45;2.60;;;;;;;;;;5110411;28;20080;-75
2023/08/14 09:11:11;;;;;;;8.70;2.60;;;;;;;;;;5078639;28;20489;-75
2023/08/14 09:13:37;;;;;;;10.48;2.70;;;;;;;;;;5110885;28;20366;-75
2023/08/14 09:16:03;;;;;;;8.77;2.53;;;;;;;;;;5109941;28;20034;-76
2023/08/14 09:18:30;;;;;;;9.85;2.55;;;;;;;;;;5111133;28;20081;-73
2023/08/14 09:20:57;;;;;;;9.35;2.60;;;;;;;;;;5110564;28;20031;-72
2023/08/14 09:23:22;;;;;;;10.45;2.53;;;;;;;;;;5110884;28;20099;-73
2023/08/14 09:25:49;;;;;;;9.63;2.47;;;;;;;;;;5110197;28;20111;-74
2023/08/14 09:28:17;;;;;;;10.68;2.50;;;;;;;;;;5110631;28;20031;-74
2023/08/14 09:30:43;;;;;;;9.98;2.60;;;;;;;;;;5109800;28;20106;-74
2023/08/14 09:33:10;;;;;;;9.57;2.80;;;;;;;;;;5110263;28;20024;-75
2023/08/14 09:35:36;;;;;;;9.70;3.15;;;;;;;;;;5091809;28;20040;-74
2023/08/14 09:38:05;;;;;;;9.02;2.70;;;;;;;;;;5110473;28;20072;-75
2023/08/14 09:40:32;;;;;;;8.98;3.15;;;;;;;;;;5110570;28;20056;-74
2023/08/14 09:42:57;;;;;;;9.32;2.92;;;;;;;;;;5110279;28;20012;-73
2023/08/14 09:45:28;;;;;;;11.52;2.70;;;;;;;;;;5109656;28;20106;-75
2023/08/14 09:47:58;;;;;;;10.90;3.25;;;;;;;;;;5109903;28;20065;-77
2023/08/14 09:50:28;;;;;;;9.75;3.50;;;;;;;;;;5110486;28;20042;-75
2023/08/14 09:53:00;;;;;;;9.57;4.40;;;;;;;;;;5110156;28;20026;-77
2023/08/14 09:55:29;;;;;;;9.10;3.38;;;;;;;;;;5091254;28;20024;-77
2023/08/14 09:57:56;;;;;;;9.60;2.90;;;;;;;;;;5109834;28;20027;-77
2023/08/14 10:00:24;;;;;;;9.57;2.72;;;;;;;;;;5109446;28;20076;-77
2023/08/14 10:02:51;;;;;;;9.82;2.42;;;;;;;;;;5110163;28;20213;-76
2023/08/14 10:05:18;;;;;;;10.30;2.40;;;;;;;;;;5109819;28;20097;-77
2023/08/14 10:07:43;;;;;;;10.52;2.78;;;;;;;;;;5109982;28;20051;-77
2023/08/14 10:10:11;;;;;;;9.90;2.53;;;;;;;;;;5112466;28;20104;-77
2023/08/14 10:12:51;;;;;;;9.25;2.70;;;;;;;;;;5114215;28;20421;-78
2023/08/14 10:15:22;;;;;;;7.28;2.65;;;;;;;;;;5113435;28;20015;-78
2023/08/14 10:17:55;;;;;;;8.45;2.47;;;;;;;;;;5113823;28;20099;-77
2023/08/14 10:20:24;;;;;;;6.40;2.33;;;;;;;;;;5113836;28;20027;-76
2023/08/14 10:22:52;;;;;;;8.52;2.50;;;;;;;;;;5113746;28;20027;-75
2023/08/14 10:25:19;;;;;;;9.02;2.33;;;;;;;;;;5113668;28;20475;-79
2023/08/14 10:27:46;;;;;;;9.80;2.70;;;;;;;;;;5113637;28;20632;-78
2023/08/14 10:30:12;;;;;;;8.68;2.60;;;;;;;;;;5113419;28;20034;-79
2023/08/14 10:32:38;;;;;;;8.40;2.67;;;;;;;;;;5113367;28;20022;-80
2023/08/14 10:35:05;;;;;;;7.03;2.50;;;;;;;;;;5113396;28;20023;-80
2023/08/14 10:37:47;;;;;;;10.18;2.60;;;;;;;;;;5113296;28;20042;-77
2023/08/14 10:40:20;;;;;;;9.52;2.80;;;;;;;;;;5113918;28;20031;-82
2023/08/14 10:42:54;;;;;;;8.88;2.80;;;;;;;;;;5113799;28;20550;-80
2023/08/14 10:45:25;;;;;;;8.40;3.05;;;;;;;;;;5113852;28;20024;-76
2023/08/14 10:47:51;;;;;;;5.93;2.58;;;;;;;;;;5113813;28;20028;-79
2023/08/14 10:50:22;;;;;;;10.13;2.70;;;;;;;;;;5113153;28;20019;-78
2023/08/14 10:52:50;;;;;;;8.20;2.45;;;;;;;;;;5113110;28;20370;-82
2023/08/14 10:55:22;;;;;;;9.32;2.90;;;;;;;;;;5113275;28;20015;-80
2023/08/14 10:57:48;;;;;;;12.82;2.83;;;;;;;;;;5113344;28;20468;-78
2023/08/14 11:01:08;;;;;;;8.88;2.53;;;;;;;;;;5112985;28;20055;-80
2023/08/14 11:03:54;;;;;;;8.15;2.53;;;;;;;;;;5076985;28;20039;-79
2023/08/14 11:06:31;;;;;;;5.85;2.53;;;;;;;;;;5094683;28;20081;-79
2023/08/14 11:09:05;;;;;;;8.40;2.90;;;;;;;;;;5094286;28;20422;-80
2023/08/14 11:11:31;;;;;;;;;;;;;;;;;;5094982;28;20181;-79
2023/08/14 11:13:57;;;;;;;9.48;2.78;;;;;;;;;;5094384;28;20077;-77
2023/08/14 11:16:28;;;;;;;10.45;2.80;;;;;;;;;;5094198;28;20118;-79
2023/08/14 11:18:54;;;;;;;6.22;2.58;;;;;;;;;;5094465;28;20050;-78
2023/08/14 11:21:19;;;;;;;8.80;2.95;;;;;;;;;;5093559;28;20410;-80
2023/08/14 11:23:44;;;;;;;6.63;2.45;;;;;;;;;;5094569;28;20057;-79
2023/08/14 11:26:10;;;;;;;8.77;2.50;;;;;;;;;;5094189;28;20399;-79
2023/08/14 11:28:35;;;;;;;10.18;2.70;;;;;;;;;;5094229;28;20249;-80
2023/08/14 11:31:01;;;;;;;8.38;2.60;;;;;;;;;;5093777;28;20045;-79
2023/08/14 11:33:26;;;;;;;8.88;2.67;;;;;;;;;;5094546;28;20027;-78
2023/08/14 11:35:54;;;;;;;8.02;2.63;;;;;;;;;;5093971;28;20040;-78
2023/08/14 11:38:22;;;;;;;8.70;2.75;;;;;;;;;;5093795;28;20211;-78
2023/08/14 11:40:47;;;;;;;9.90;2.97;;;;;;;;;;5094063;28;20047;-78
2023/08/14 11:43:13;;;;;;;7.70;2.55;;;;;;;;;;5112229;28;20024;-79
2023/08/14 11:45:38;;;;;;;10.90;3.10;;;;;;;;;;5111917;28;20059;-79
2023/08/14 11:48:06;;;;;;;9.40;2.60;;;;;;;;;;5094283;28;20019;-78
2023/08/14 11:50:31;;;;;;;9.05;2.33;;;;;;;;;;5093649;28;20019;-79
2023/08/14 11:52:57;;;;;;;6.80;2.53;;;;;;;;;;5093875;28;20075;-79
2023/08/14 11:55:27;;;;;;;8.13;2.65;;;;;;;;;;5093850;28;20118;-80
2023/08/14 11:57:58;;;;;;;6.22;2.47;;;;;;;;;;5093952;28;20031;-80
2023/08/14 12:00:23;;;;;;;6.70;2.50;;;;;;;;;;5093207;28;20468;-78
2023/08/14 12:02:51;;;;;;;7.80;2.45;;;;;;;;;;5092865;28;20046;-79
2023/08/14 12:05:19;;;;;;;7.95;2.72;;;;;;;;;;5093170;28;20015;-79
2023/08/14 12:07:44;;;;;;;6.78;2.70;;;;;;;;;;5112142;28;20024;-78
2023/08/14 12:10:23;;;;;;;7.95;2.70;;;;;;;;;;5093621;28;20036;-77
2023/08/14 12:13:00;;;;;;;8.13;2.60;;;;;;;;;;5111538;28;20027;-79
2023/08/14 12:15:46;;;;;;;7.68;2.35;;;;;;;;;;5099994;28;20401;-82
2023/08/14 12:18:46;;;;;;;8.32;2.70;;;;;;;;;;5111721;28;20585;-81
2023/08/14 12:21:26;;;;;;;5.47;2.50;;;;;;;;;;5092942;28;20353;-81
2023/08/14 12:23:53;;;;;;;7.22;2.55;;;;;;;;;;5093400;28;20428;-80
2023/08/14 12:26:28;;;;;;;6.10;2.70;;;;;;;;;;5092784;28;20281;-83
2023/08/14 12:29:12;;;;;;;7.18;2.80;;;;;;;;;;5111801;28;20027;-85
2023/08/14 12:31:47;;;;;;;7.07;2.60;;;;;;;;;;5093041;28;20036;-87
2023/08/14 12:34:12;;;;;;;6.80;2.60;;;;;;;;;;5093085;28;20343;-82
2023/08/14 12:36:38;;;;;;;7.35;2.60;;;;;;;;;;5110885;28;20114;-84
2023/08/14 12:39:03;;;;;;;6.85;2.90;;;;;;;;;;5092810;28;20019;-82
2023/08/14 12:41:29;;;;;;;8.02;2.60;;;;;;;;;;5092942;28;20019;-81
2023/08/14 12:43:55;;;;;;;8.10;2.80;;;;;;;;;;5092845;28;20023;-81
2023/08/14 12:46:21;;;;;;;7.65;2.78;;;;;;;;;;5092582;28;20016;-80
2023/08/14 12:48:46;;;;;;;6.75;2.60;;;;;;;;;;5111136;28;20035;-80
2023/08/14 12:51:11;;;;;;;10.25;2.70;;;;;;;;;;5092359;28;20019;-81
2023/08/14 12:53:37;;;;;;;7.28;2.80;;;;;;;;;;5092384;28;21347;-81
2023/08/14 12:56:06;;;;;;;7.57;2.80;;;;;;;;;;5092644;28;20011;-86
2023/08/14 12:58:32;;;;;;;7.25;2.95;;;;;;;;;;5092669;28;20049;-80
2023/08/14 13:01:18;;;;;;;8.93;2.75;;;;;;;;;;5092269;28;20019;-84
2023/08/14 13:03:46;;;;;;;5.60;2.92;;;;;;;;;;5074797;28;20023;-81
2023/08/14 13:06:20;;;;;;;6.50;3.20;;;;;;;;;;5092557;28;20030;-83
2023/08/14 13:08:53;;;;;;;6.20;2.78;;;;;;;;;;5092629;28;20437;-83
2023/08/14 13:11:24;;;;;;;7.53;2.60;;;;;;;;;;5092194;28;20034;-82
2023/08/14 13:13:51;;;;;;;8.32;3.05;;;;;;;;;;5092226;28;20467;-83
2023/08/14 13:16:16;;;;;;;7.90;2.83;;;;;;;;;;5091766;28;20039;-81
2023/08/14 13:18:45;;;;;;;9.98;3.33;;;;;;;;;;5092560;28;20023;-81
2023/08/14 13:21:11;;;;;;;7.35;2.85;;;;;;;;;;5092197;28;20043;-79
2023/08/14 13:23:36;;;;;;;7.10;3.03;;;;;;;;;;5092544;28;20085;-79
2023/08/14 13:26:02;;;;;;;7.68;3.10;;;;;;;;;;5092055;28;20077;-82
2023/08/14 13:28:27;;;;;;;6.32;2.83;;;;;;;;;;5092093;28;20035;-81
2023/08/14 13:31:41;;;;;;;5.75;2.90;;;;;;;;;;5091169;28;20076;-81
2023/08/14 13:34:06;;;;;;;10.35;3.05;;;;;;;;;;5091955;28;20026;-79
2023/08/14 13:36:38;;;;;;;10.77;2.90;;;;;;;;;;5091953;28;20044;-81
2023/08/14 13:39:05;;;;;;;6.88;3.00;;;;;;;;;;5091540;28;20399;-81
2023/08/14 13:41:39;;;;;;;8.75;2.90;;;;;;;;;;5091941;28;20024;-82
2023/08/14 13:44:05;;;;;;;8.80;3.20;;;;;;;;;;5091054;28;20395;-81
2023/08/14 13:46:30;;;;;;;6.13;2.97;;;;;;;;;;5091459;28;20543;-79
2023/08/14 13:48:56;;;;;;;9.60;3.20;;;;;;;;;;5091876;28;20020;-81
2023/08/14 13:51:21;;;;;;;10.00;3.30;;;;;;;;;;5109715;28;20026;-81
2023/08/14 13:53:54;;;;;;;9.02;3.40;;;;;;;;;;5109789;28;20051;-82
2023/08/14 13:56:20;;;;;;;6.85;3.35;;;;;;;;;;5091531;28;20031;-80
2023/08/14 13:58:45;;;;;;;6.18;3.42;;;;;;;;;;5110006;28;20026;-78
2023/08/14 14:01:11;;;;;;;8.15;3.22;;;;;;;;;;5109393;28;20084;-78
2023/08/14 14:03:36;;;;;;;7.05;3.17;;;;;;;;;;5109511;28;20055;-79
2023/08/14 14:06:09;;;;;;;7.72;3.05;;;;;;;;;;5091379;28;20499;-83
2023/08/14 14:08:34;;;;;;;6.95;3.15;;;;;;;;;;5091585;28;20023;-80
2023/08/14 14:11:00;;;;;;;6.78;2.80;;;;;;;;;;5109435;28;20115;-75
2023/08/14 14:13:26;;;;;;;7.28;3.20;;;;;;;;;;5092235;28;20113;-74
2023/08/14 14:15:51;;;;;;;9.38;3.20;;;;;;;;;;5110478;28;20282;-74
2023/08/14 14:18:16;;;;;;;7.60;3.63;;;;;;;;;;5110965;28;20282;-74
2023/08/14 14:20:42;;;;;;;5.57;3.10;;;;;;;;;;5110233;28;20024;-73
2023/08/14 14:23:07;;;;;;;8.20;3.30;;;;;;;;;;5109625;28;20103;-76
2023/08/14 14:25:33;;;;;;;8.13;3.33;;;;;;;;;;5109700;28;20383;-76
2023/08/14 14:27:58;;;;;;;7.70;3.25;;;;;;;;;;5090753;28;20384;-77
2023/08/14 14:30:23;;;;;;;8.48;3.42;;;;;;;;;;5109883;28;20089;-74
2023/08/14 14:32:49;;;;;;;10.77;3.35;;;;;;;;;;5109563;28;20472;-75
2023/08/14 14:35:14;;;;;;;7.22;3.22;;;;;;;;;;5109336;28;20015;-75
2023/08/14 14:37:40;;;;;;;12.43;3.65;;;;;;;;;;5109261;28;20019;-76